sensor_id;sensor_type;location;lat;lon;timestamp;temperature;humidity
48212;DHT22;34000;48.772;9.162;2023-02-01T00:00:32;7.70;63.00
48212;DHT22;34000;48.772;9.162;2023-02-01T00:02:59;7.60;63.10
48212;DHT22;34000;48.772;9.162;2023-02-01T00:05:25;7.60;63.20
48212;DHT22;34000;48.772;9.162;2023-02-01T00:07:50;7.60;63.40
48212;DHT22;34000;48.772;9.162;2023-02-01T00:10:16;7.60;63.50
48212;DHT22;34000;48.772;9.162;2023-02-01T00:12:42;7.50;63.60
48212;DHT22;34000;48.772;9.162;2023-02-01T00:15:07;7.50;63.70
48212;DHT22;34000;48.772;9.162;2023-02-01T00:17:33;7.50;63.80
48212;DHT22;34000;48.772;9.162;2023-02-01T00:19:59;7.50;64.00
48212;DHT22;34000;48.772;9.162;2023-02-01T00:22:24;7.50;64.00
48212;DHT22;34000;48.772;9.162;2023-02-01T00:24:49;7.50;64.00
48212;DHT22;34000;48.772;9.162;2023-02-01T00:27:16;7.50;64.00
48212;DHT22;34000;48.772;9.162;2023-02-01T00:29:45;7.50;64.10
48212;DHT22;34000;48.772;9.162;2023-02-01T00:32:11;7.50;64.20
48212;DHT22;34000;48.772;9.162;2023-02-01T00:34:36;7.50;64.20
48212;DHT22;34000;48.772;9.162;2023-02-01T00:37:04;7.60;64.20
48212;DHT22;34000;48.772;9.162;2023-02-01T00:39:29;7.60;64.20
48212;DHT22;34000;48.772;9.162;2023-02-01T00:41:55;7.60;64.10
48212;DHT22;34000;48.772;9.162;2023-02-01T00:44:20;7.60;64.00
48212;DHT22;34000;48.772;9.162;2023-02-01T00:46:46;7.70;64.00
48212;DHT22;34000;48.772;9.162;2023-02-01T00:49:11;7.60;64.00
48212;DHT22;34000;48.772;9.162;2023-02-01T00:51:37;7.70;64.00
48212;DHT22;34000;48.772;9.162;2023-02-01T00:54:02;7.70;63.90
48212;DHT22;34000;48.772;9.162;2023-02-01T00:56:28;7.70;63.90
48212;DHT22;34000;48.772;9.162;2023-02-01T00:58:54;7.70;63.90
48212;DHT22;34000;48.772;9.162;2023-02-01T01:01:21;7.70;63.80
48212;DHT22;34000;48.772;9.162;2023-02-01T01:03:48;7.70;63.80
48212;DHT22;34000;48.772;9.162;2023-02-01T01:06:17;7.70;63.70
48212;DHT22;34000;48.772;9.162;2023-02-01T01:08:42;7.80;63.70
48212;DHT22;34000;48.772;9.162;2023-02-01T01:11:09;7.80;63.70
48212;DHT22;34000;48.772;9.162;2023-02-01T01:13:35;7.80;63.60
48212;DHT22;34000;48.772;9.162;2023-02-01T01:16:01;7.80;63.50
48212;DHT22;34000;48.772;9.162;2023-02-01T01:18:28;7.80;63.60
48212;DHT22;34000;48.772;9.162;2023-02-01T01:20:53;7.80;63.60
48212;DHT22;34000;48.772;9.162;2023-02-01T01:23:19;7.80;63.60
48212;DHT22;34000;48.772;9.162;2023-02-01T01:25:44;7.80;63.50
48212;DHT22;34000;48.772;9.162;2023-02-01T01:28:10;7.80;63.50
48212;DHT22;34000;48.772;9.162;2023-02-01T01:30:35;7.80;63.50
48212;DHT22;34000;48.772;9.162;2023-02-01T01:33:01;7.80;63.50
48212;DHT22;34000;48.772;9.162;2023-02-01T01:35:28;7.80;63.50
48212;DHT22;34000;48.772;9.162;2023-02-01T01:37:54;7.90;63.50
48212;DHT22;34000;48.772;9.162;2023-02-01T01:40:19;7.80;63.40
48212;DHT22;34000;48.772;9.162;2023-02-01T01:42:44;7.80;63.50
48212;DHT22;34000;48.772;9.162;2023-02-01T01:47:37;7.80;63.60
48212;DHT22;34000;48.772;9.162;2023-02-01T01:50:05;7.70;63.60
48212;DHT22;34000;48.772;9.162;2023-02-01T01:52:32;7.70;63.70
48212;DHT22;34000;48.772;9.162;2023-02-01T01:54:57;7.70;63.70
48212;DHT22;34000;48.772;9.162;2023-02-01T01:57:26;7.70;63.70
48212;DHT22;34000;48.772;9.162;2023-02-01T01:59:55;7.70;63.70
48212;DHT22;34000;48.772;9.162;2023-02-01T02:02:21;7.70;63.80
48212;DHT22;34000;48.772;9.162;2023-02-01T02:04:47;7.70;63.90
48212;DHT22;34000;48.772;9.162;2023-02-01T02:07:14;7.70;63.90
48212;DHT22;34000;48.772;9.162;2023-02-01T02:09:41;7.70;63.90
48212;DHT22;34000;48.772;9.162;2023-02-01T02:12:08;7.70;63.90
48212;DHT22;34000;48.772;9.162;2023-02-01T02:14:34;7.70;63.90
48212;DHT22;34000;48.772;9.162;2023-02-01T02:36:59;8.00;63.40
48212;DHT22;34000;48.772;9.162;2023-02-01T02:39:42;7.90;63.40
48212;DHT22;34000;48.772;9.162;2023-02-01T02:42:16;7.90;63.50
48212;DHT22;34000;48.772;9.162;2023-02-01T02:48:29;7.80;63.60
48212;DHT22;34000;48.772;9.162;2023-02-01T02:50:36;7.80;63.60
48212;DHT22;34000;48.772;9.162;2023-02-01T02:53:27;7.80;63.60
48212;DHT22;34000;48.772;9.162;2023-02-01T02:56:12;7.80;63.60
48212;DHT22;34000;48.772;9.162;2023-02-01T02:58:56;7.80;63.70
48212;DHT22;34000;48.772;9.162;2023-02-01T03:01:41;7.80;63.90
48212;DHT22;34000;48.772;9.162;2023-02-01T03:04:25;7.70;64.20
48212;DHT22;34000;48.772;9.162;2023-02-01T03:06:51;7.60;64.50
48212;DHT22;34000;48.772;9.162;2023-02-01T03:09:26;7.50;64.80
48212;DHT22;34000;48.772;9.162;2023-02-01T03:11:57;7.50;65.00
48212;DHT22;34000;48.772;9.162;2023-02-01T03:14:43;7.50;65.20
48212;DHT22;34000;48.772;9.162;2023-02-01T03:17:17;7.40;65.20
48212;DHT22;34000;48.772;9.162;2023-02-01T03:19:45;7.50;65.40
48212;DHT22;34000;48.772;9.162;2023-02-01T03:22:15;7.50;65.40
48212;DHT22;34000;48.772;9.162;2023-02-01T03:24:55;7.50;65.40
48212;DHT22;34000;48.772;9.162;2023-02-01T03:27:22;7.50;65.50
48212;DHT22;34000;48.772;9.162;2023-02-01T03:29:50;7.60;65.60
48212;DHT22;34000;48.772;9.162;2023-02-01T03:32:16;7.50;65.50
48212;DHT22;34000;48.772;9.162;2023-02-01T03:34:42;7.50;65.70
48212;DHT22;34000;48.772;9.162;2023-02-01T03:37:09;7.40;65.80
48212;DHT22;34000;48.772;9.162;2023-02-01T03:39:56;7.50;66.10
48212;DHT22;34000;48.772;9.162;2023-02-01T03:42:25;7.40;66.20
48212;DHT22;34000;48.772;9.162;2023-02-01T03:44:57;7.30;66.40
48212;DHT22;34000;48.772;9.162;2023-02-01T03:47:27;7.30;66.50
48212;DHT22;34000;48.772;9.162;2023-02-01T03:52:24;7.30;66.80
48212;DHT22;34000;48.772;9.162;2023-02-01T03:54:51;7.30;66.80
48212;DHT22;34000;48.772;9.162;2023-02-01T03:57:18;7.30;66.90
48212;DHT22;34000;48.772;9.162;2023-02-01T03:59:45;7.30;66.80
48212;DHT22;34000;48.772;9.162;2023-02-01T04:02:11;7.40;66.80
48212;DHT22;34000;48.772;9.162;2023-02-01T04:04:37;7.40;66.80
48212;DHT22;34000;48.772;9.162;2023-02-01T04:07:02;7.40;66.70
48212;DHT22;34000;48.772;9.162;2023-02-01T04:09:28;7.40;66.70
48212;DHT22;34000;48.772;9.162;2023-02-01T04:11:53;7.50;66.70
48212;DHT22;34000;48.772;9.162;2023-02-01T04:14:19;7.50;66.70
48212;DHT22;34000;48.772;9.162;2023-02-01T04:16:44;7.50;66.70
48212;DHT22;34000;48.772;9.162;2023-02-01T04:19:10;7.50;66.60
48212;DHT22;34000;48.772;9.162;2023-02-01T04:21:35;7.50;66.50
48212;DHT22;34000;48.772;9.162;2023-02-01T04:24:01;7.50;66.50
48212;DHT22;34000;48.772;9.162;2023-02-01T04:26:26;7.60;66.50
48212;DHT22;34000;48.772;9.162;2023-02-01T04:28:52;7.60;66.30
48212;DHT22;34000;48.772;9.162;2023-02-01T04:31:18;7.60;66.20
48212;DHT22;34000;48.772;9.162;2023-02-01T04:33:53;7.70;66.20
48212;DHT22;34000;48.772;9.162;2023-02-01T04:36:19;7.70;66.10
48212;DHT22;34000;48.772;9.162;2023-02-01T04:38:51;7.70;66.00
48212;DHT22;34000;48.772;9.162;2023-02-01T04:41:16;7.70;66.00
48212;DHT22;34000;48.772;9.162;2023-02-01T04:43:47;7.70;66.10
48212;DHT22;34000;48.772;9.162;2023-02-01T04:46:13;7.80;66.00
48212;DHT22;34000;48.772;9.162;2023-02-01T04:48:38;7.80;65.90
48212;DHT22;34000;48.772;9.162;2023-02-01T04:51:04;7.80;65.80
48212;DHT22;34000;48.772;9.162;2023-02-01T04:53:29;7.80;65.80
48212;DHT22;34000;48.772;9.162;2023-02-01T04:55:55;7.90;65.80
48212;DHT22;34000;48.772;9.162;2023-02-01T04:58:20;7.90;65.70
48212;DHT22;34000;48.772;9.162;2023-02-01T05:00:46;8.00;65.60
48212;DHT22;34000;48.772;9.162;2023-02-01T05:03:11;7.90;65.40
48212;DHT22;34000;48.772;9.162;2023-02-01T05:05:37;7.90;65.40
48212;DHT22;34000;48.772;9.162;2023-02-01T05:08:02;7.80;65.40
48212;DHT22;34000;48.772;9.162;2023-02-01T05:10:28;7.80;65.60
48212;DHT22;34000;48.772;9.162;2023-02-01T05:12:54;7.90;65.70
48212;DHT22;34000;48.772;9.162;2023-02-01T05:15:38;7.80;65.80
48212;DHT22;34000;48.772;9.162;2023-02-01T05:18:03;7.70;65.80
48212;DHT22;34000;48.772;9.162;2023-02-01T05:20:29;7.80;65.80
48212;DHT22;34000;48.772;9.162;2023-02-01T05:22:54;7.80;66.40
48212;DHT22;34000;48.772;9.162;2023-02-01T05:25:20;7.70;65.70
48212;DHT22;34000;48.772;9.162;2023-02-01T05:27:45;7.80;66.20
48212;DHT22;34000;48.772;9.162;2023-02-01T05:30:11;7.80;65.60
48212;DHT22;34000;48.772;9.162;2023-02-01T05:32:36;7.90;65.60
48212;DHT22;34000;48.772;9.162;2023-02-01T05:35:02;7.90;65.50
48212;DHT22;34000;48.772;9.162;2023-02-01T05:37:27;7.90;65.50
48212;DHT22;34000;48.772;9.162;2023-02-01T05:39:53;7.90;65.40
48212;DHT22;34000;48.772;9.162;2023-02-01T05:42:18;7.90;65.50
48212;DHT22;34000;48.772;9.162;2023-02-01T05:44:44;7.90;65.50
48212;DHT22;34000;48.772;9.162;2023-02-01T05:47:09;8.00;65.40
48212;DHT22;34000;48.772;9.162;2023-02-01T05:49:35;7.90;65.30
48212;DHT22;34000;48.772;9.162;2023-02-01T05:52:01;8.00;65.30
48212;DHT22;34000;48.772;9.162;2023-02-01T05:54:27;8.00;65.30
48212;DHT22;34000;48.772;9.162;2023-02-01T05:56:52;8.00;65.20
48212;DHT22;34000;48.772;9.162;2023-02-01T05:59:18;8.00;65.30
48212;DHT22;34000;48.772;9.162;2023-02-01T06:01:43;7.80;65.50
48212;DHT22;34000;48.772;9.162;2023-02-01T06:04:09;7.80;66.00
48212;DHT22;34000;48.772;9.162;2023-02-01T06:06:34;7.60;66.40
48212;DHT22;34000;48.772;9.162;2023-02-01T06:09:02;7.50;66.90
48212;DHT22;34000;48.772;9.162;2023-02-01T06:11:27;7.30;67.30
48212;DHT22;34000;48.772;9.162;2023-02-01T06:13:53;7.20;67.80
48212;DHT22;34000;48.772;9.162;2023-02-01T06:16:19;7.20;68.10
48212;DHT22;34000;48.772;9.162;2023-02-01T06:18:44;7.20;68.30
48212;DHT22;34000;48.772;9.162;2023-02-01T06:21:10;7.20;68.50
48212;DHT22;34000;48.772;9.162;2023-02-01T06:23:35;7.10;68.60
48212;DHT22;34000;48.772;9.162;2023-02-01T06:26:02;7.10;68.70
48212;DHT22;34000;48.772;9.162;2023-02-01T06:28:28;7.10;68.70
48212;DHT22;34000;48.772;9.162;2023-02-01T06:30:54;7.10;68.80
48212;DHT22;34000;48.772;9.162;2023-02-01T06:33:19;7.20;68.90
48212;DHT22;34000;48.772;9.162;2023-02-01T06:35:45;7.20;68.80
48212;DHT22;34000;48.772;9.162;2023-02-01T06:38:11;7.20;68.70
48212;DHT22;34000;48.772;9.162;2023-02-01T06:40:37;7.30;68.60
48212;DHT22;34000;48.772;9.162;2023-02-01T06:43:02;7.40;68.40
48212;DHT22;34000;48.772;9.162;2023-02-01T06:45:28;7.40;68.30
48212;DHT22;34000;48.772;9.162;2023-02-01T06:47:53;7.50;68.30
48212;DHT22;34000;48.772;9.162;2023-02-01T06:50:19;7.50;68.10
48212;DHT22;34000;48.772;9.162;2023-02-01T06:52:45;7.60;67.90
48212;DHT22;34000;48.772;9.162;2023-02-01T06:55:11;7.70;67.70
48212;DHT22;34000;48.772;9.162;2023-02-01T06:57:36;7.70;67.60
48212;DHT22;34000;48.772;9.162;2023-02-01T07:00:03;7.80;67.50
48212;DHT22;34000;48.772;9.162;2023-02-01T07:02:28;7.80;67.40
48212;DHT22;34000;48.772;9.162;2023-02-01T07:04:54;7.90;67.30
48212;DHT22;34000;48.772;9.162;2023-02-01T07:07:20;7.90;67.20
48212;DHT22;34000;48.772;9.162;2023-02-01T07:09:48;7.90;67.10
48212;DHT22;34000;48.772;9.162;2023-02-01T07:12:14;7.90;67.00
48212;DHT22;34000;48.772;9.162;2023-02-01T07:14:39;7.90;67.00
48212;DHT22;34000;48.772;9.162;2023-02-01T07:17:05;7.90;66.90
48212;DHT22;34000;48.772;9.162;2023-02-01T07:19:30;8.00;66.90
48212;DHT22;34000;48.772;9.162;2023-02-01T07:21:56;8.10;66.70
48212;DHT22;34000;48.772;9.162;2023-02-01T07:24:21;8.10;66.50
48212;DHT22;34000;48.772;9.162;2023-02-01T07:26:47;8.20;66.40
48212;DHT22;34000;48.772;9.162;2023-02-01T07:29:13;8.10;66.30
48212;DHT22;34000;48.772;9.162;2023-02-01T07:31:38;8.10;66.30
48212;DHT22;34000;48.772;9.162;2023-02-01T07:34:04;8.20;66.30
48212;DHT22;34000;48.772;9.162;2023-02-01T07:36:29;8.20;66.20
48212;DHT22;34000;48.772;9.162;2023-02-01T07:38:55;8.30;66.10
48212;DHT22;34000;48.772;9.162;2023-02-01T07:41:20;8.40;66.00
48212;DHT22;34000;48.772;9.162;2023-02-01T07:43:46;8.40;65.80
48212;DHT22;34000;48.772;9.162;2023-02-01T07:46:11;8.40;65.70
48212;DHT22;34000;48.772;9.162;2023-02-01T07:48:37;8.50;65.60
48212;DHT22;34000;48.772;9.162;2023-02-01T07:51:08;8.40;65.50
48212;DHT22;34000;48.772;9.162;2023-02-01T07:53:34;8.40;65.50
48212;DHT22;34000;48.772;9.162;2023-02-01T07:56:00;8.40;65.50
48212;DHT22;34000;48.772;9.162;2023-02-01T07:58:26;8.40;65.40
48212;DHT22;34000;48.772;9.162;2023-02-01T08:00:52;8.40;65.30
48212;DHT22;34000;48.772;9.162;2023-02-01T08:03:36;8.40;65.20
48212;DHT22;34000;48.772;9.162;2023-02-01T08:06:01;8.50;65.20
48212;DHT22;34000;48.772;9.162;2023-02-01T08:08:27;8.50;65.20
48212;DHT22;34000;48.772;9.162;2023-02-01T08:11:03;8.50;65.20
48212;DHT22;34000;48.772;9.162;2023-02-01T08:13:29;8.50;65.00
48212;DHT22;34000;48.772;9.162;2023-02-01T08:16:04;8.60;65.00
48212;DHT22;34000;48.772;9.162;2023-02-01T08:18:30;8.60;64.80
48212;DHT22;34000;48.772;9.162;2023-02-01T08:20:56;8.60;64.60
48212;DHT22;34000;48.772;9.162;2023-02-01T08:23:22;8.60;64.40
48212;DHT22;34000;48.772;9.162;2023-02-01T08:25:48;8.60;64.40
48212;DHT22;34000;48.772;9.162;2023-02-01T08:28:13;8.70;64.40
48212;DHT22;34000;48.772;9.162;2023-02-01T08:30:39;8.70;64.30
48212;DHT22;34000;48.772;9.162;2023-02-01T08:33:05;8.70;64.20
48212;DHT22;34000;48.772;9.162;2023-02-01T08:35:34;8.70;64.10
48212;DHT22;34000;48.772;9.162;2023-02-01T08:38:00;8.70;64.10
48212;DHT22;34000;48.772;9.162;2023-02-01T08:40:25;8.70;64.00
48212;DHT22;34000;48.772;9.162;2023-02-01T08:42:51;8.80;64.10
48212;DHT22;34000;48.772;9.162;2023-02-01T08:45:20;8.90;64.00
48212;DHT22;34000;48.772;9.162;2023-02-01T08:47:47;9.00;63.90
48212;DHT22;34000;48.772;9.162;2023-02-01T08:50:13;9.10;63.70
48212;DHT22;34000;48.772;9.162;2023-02-01T08:52:39;9.10;63.30
48212;DHT22;34000;48.772;9.162;2023-02-01T08:55:05;9.20;63.10
48212;DHT22;34000;48.772;9.162;2023-02-01T08:57:31;9.30;62.90
48212;DHT22;34000;48.772;9.162;2023-02-01T08:59:57;9.20;62.70
48212;DHT22;34000;48.772;9.162;2023-02-01T09:02:22;9.10;62.70
48212;DHT22;34000;48.772;9.162;2023-02-01T09:04:48;9.20;62.70
48212;DHT22;34000;48.772;9.162;2023-02-01T09:07:14;9.20;62.40
48212;DHT22;34000;48.772;9.162;2023-02-01T09:09:40;9.30;62.30
48212;DHT22;34000;48.772;9.162;2023-02-01T09:12:05;9.30;62.30
48212;DHT22;34000;48.772;9.162;2023-02-01T09:14:31;9.40;62.30
48212;DHT22;34000;48.772;9.162;2023-02-01T09:16:56;9.40;62.20
48212;DHT22;34000;48.772;9.162;2023-02-01T09:19:22;9.40;62.20
48212;DHT22;34000;48.772;9.162;2023-02-01T09:21:47;9.50;62.00
48212;DHT22;34000;48.772;9.162;2023-02-01T09:24:13;9.40;61.90
48212;DHT22;34000;48.772;9.162;2023-02-01T09:26:38;9.50;61.70
48212;DHT22;34000;48.772;9.162;2023-02-01T09:29:04;9.50;61.70
48212;DHT22;34000;48.772;9.162;2023-02-01T09:31:35;9.50;61.70
48212;DHT22;34000;48.772;9.162;2023-02-01T09:34:01;9.60;61.60
48212;DHT22;34000;48.772;9.162;2023-02-01T09:36:26;9.60;61.50
48212;DHT22;34000;48.772;9.162;2023-02-01T09:38:52;9.80;61.30
48212;DHT22;34000;48.772;9.162;2023-02-01T09:46:32;10.00;60.40
48212;DHT22;34000;48.772;9.162;2023-02-01T09:49:00;10.10;60.20
48212;DHT22;34000;48.772;9.162;2023-02-01T09:51:31;10.20;60.20
48212;DHT22;34000;48.772;9.162;2023-02-01T09:54:20;10.40;60.10
48212;DHT22;34000;48.772;9.162;2023-02-01T09:56:46;10.50;59.80
48212;DHT22;34000;48.772;9.162;2023-02-01T10:01:40;10.70;58.80
48212;DHT22;34000;48.772;9.162;2023-02-01T10:04:07;10.70;58.50
48212;DHT22;34000;48.772;9.162;2023-02-01T10:27:29;10.70;57.90
48212;DHT22;34000;48.772;9.162;2023-02-01T10:30:04;10.80;57.50
48212;DHT22;34000;48.772;9.162;2023-02-01T10:32:33;10.90;57.10
48212;DHT22;34000;48.772;9.162;2023-02-01T10:35:00;11.00;57.00
48212;DHT22;34000;48.772;9.162;2023-02-01T10:37:28;11.00;56.60
48212;DHT22;34000;48.772;9.162;2023-02-01T10:39:54;11.10;56.60
48212;DHT22;34000;48.772;9.162;2023-02-01T10:42:21;11.20;56.30
48212;DHT22;34000;48.772;9.162;2023-02-01T10:44:47;11.30;56.10
48212;DHT22;34000;48.772;9.162;2023-02-01T10:47:13;11.30;55.90
48212;DHT22;34000;48.772;9.162;2023-02-01T10:50:03;11.20;55.60
48212;DHT22;34000;48.772;9.162;2023-02-01T10:54:50;11.20;55.70
48212;DHT22;34000;48.772;9.162;2023-02-01T10:57:21;11.30;55.50
48212;DHT22;34000;48.772;9.162;2023-02-01T10:59:47;11.30;55.20
48212;DHT22;34000;48.772;9.162;2023-02-01T11:02:15;11.30;55.00
48212;DHT22;34000;48.772;9.162;2023-02-01T11:04:41;11.30;55.00
48212;DHT22;34000;48.772;9.162;2023-02-01T11:09:39;11.20;54.70
48212;DHT22;34000;48.772;9.162;2023-02-01T11:12:10;11.10;54.60
48212;DHT22;34000;48.772;9.162;2023-02-01T11:14:45;11.10;54.50
48212;DHT22;34000;48.772;9.162;2023-02-01T11:17:17;11.10;54.50
48212;DHT22;34000;48.772;9.162;2023-02-01T11:19:55;11.10;54.40
48212;DHT22;34000;48.772;9.162;2023-02-01T11:22:21;11.20;54.30
48212;DHT22;34000;48.772;9.162;2023-02-01T11:24:47;11.20;54.00
48212;DHT22;34000;48.772;9.162;2023-02-01T11:27:16;11.20;53.90
48212;DHT22;34000;48.772;9.162;2023-02-01T11:29:43;11.20;53.90
48212;DHT22;34000;48.772;9.162;2023-02-01T11:32:11;11.20;54.10
48212;DHT22;34000;48.772;9.162;2023-02-01T11:34:38;11.20;53.90
48212;DHT22;34000;48.772;9.162;2023-02-01T11:37:05;11.20;53.60
48212;DHT22;34000;48.772;9.162;2023-02-01T11:39:39;11.20;53.40
48212;DHT22;34000;48.772;9.162;2023-02-01T11:42:17;11.20;53.30
48212;DHT22;34000;48.772;9.162;2023-02-01T11:44:43;11.20;53.30
48212;DHT22;34000;48.772;9.162;2023-02-01T11:47:28;11.30;53.20
48212;DHT22;34000;48.772;9.162;2023-02-01T11:49:58;11.30;53.20
48212;DHT22;34000;48.772;9.162;2023-02-01T11:57:31;11.30;52.80
48212;DHT22;34000;48.772;9.162;2023-02-01T12:00:12;11.40;53.00
48212;DHT22;34000;48.772;9.162;2023-02-01T12:02:48;11.80;52.70
48212;DHT22;34000;48.772;9.162;2023-02-01T12:08:34;12.10;51.30
48212;DHT22;34000;48.772;9.162;2023-02-01T12:10:33;12.00;51.30
48212;DHT22;34000;48.772;9.162;2023-02-01T12:13:12;11.80;51.20
48212;DHT22;34000;48.772;9.162;2023-02-01T12:15:53;11.70;51.40
48212;DHT22;34000;48.772;9.162;2023-02-01T12:30:57;11.30;51.50
48212;DHT22;34000;48.772;9.162;2023-02-01T12:33:31;11.30;51.40
48212;DHT22;34000;48.772;9.162;2023-02-01T12:43:40;11.10;51.40
48212;DHT22;34000;48.772;9.162;2023-02-01T12:46:19;11.00;51.40
48212;DHT22;34000;48.772;9.162;2023-02-01T12:48:56;10.90;51.30
48212;DHT22;34000;48.772;9.162;2023-02-01T12:51:34;10.90;51.30
48212;DHT22;34000;48.772;9.162;2023-02-01T12:54:10;10.90;51.50
48212;DHT22;34000;48.772;9.162;2023-02-01T12:56:45;10.90;51.40
48212;DHT22;34000;48.772;9.162;2023-02-01T12:59:29;10.90;51.40
48212;DHT22;34000;48.772;9.162;2023-02-01T13:02:01;10.90;51.40
48212;DHT22;34000;48.772;9.162;2023-02-01T13:04:32;10.90;51.30
48212;DHT22;34000;48.772;9.162;2023-02-01T13:07:01;10.80;51.40
48212;DHT22;34000;48.772;9.162;2023-02-01T13:12:17;10.80;51.50
48212;DHT22;34000;48.772;9.162;2023-02-01T13:14:46;10.80;51.50
48212;DHT22;34000;48.772;9.162;2023-02-01T13:17:14;10.80;51.60
48212;DHT22;34000;48.772;9.162;2023-02-01T13:22:28;10.80;51.70
48212;DHT22;34000;48.772;9.162;2023-02-01T13:25:02;10.70;51.60
48212;DHT22;34000;48.772;9.162;2023-02-01T13:27:29;10.80;51.60
48212;DHT22;34000;48.772;9.162;2023-02-01T13:29:58;10.70;51.50
48212;DHT22;34000;48.772;9.162;2023-02-01T13:42:28;10.70;51.60
48212;DHT22;34000;48.772;9.162;2023-02-01T13:44:59;10.80;51.60
48212;DHT22;34000;48.772;9.162;2023-02-01T13:47:27;10.80;51.50
48212;DHT22;34000;48.772;9.162;2023-02-01T13:49:54;10.80;51.50
48212;DHT22;34000;48.772;9.162;2023-02-01T13:54:49;10.80;51.60
48212;DHT22;34000;48.772;9.162;2023-02-01T13:57:32;10.80;51.60
48212;DHT22;34000;48.772;9.162;2023-02-01T14:00:45;10.80;51.50
48212;DHT22;34000;48.772;9.162;2023-02-01T14:02:46;10.70;51.40
48212;DHT22;34000;48.772;9.162;2023-02-01T14:08:02;10.70;51.60
48212;DHT22;34000;48.772;9.162;2023-02-01T14:23:44;10.70;51.50
48212;DHT22;34000;48.772;9.162;2023-02-01T14:26:15;10.70;51.40
48212;DHT22;34000;48.772;9.162;2023-02-01T14:33:54;10.60;51.30
48212;DHT22;34000;48.772;9.162;2023-02-01T14:36:20;10.60;51.40
48212;DHT22;34000;48.772;9.162;2023-02-01T14:38:49;10.60;51.40
48212;DHT22;34000;48.772;9.162;2023-02-01T14:49:09;10.60;51.20
48212;DHT22;34000;48.772;9.162;2023-02-01T14:51:35;10.50;51.20
48212;DHT22;34000;48.772;9.162;2023-02-01T14:54:01;10.50;51.20
48212;DHT22;34000;48.772;9.162;2023-02-01T14:56:27;10.50;51.30
48212;DHT22;34000;48.772;9.162;2023-02-01T14:58:57;10.50;51.30
48212;DHT22;34000;48.772;9.162;2023-02-01T15:01:24;10.50;51.30
48212;DHT22;34000;48.772;9.162;2023-02-01T15:03:55;10.50;51.30
48212;DHT22;34000;48.772;9.162;2023-02-01T15:09:12;10.60;51.40
48212;DHT22;34000;48.772;9.162;2023-02-01T15:14:22;10.60;51.30
48212;DHT22;34000;48.772;9.162;2023-02-01T15:16:48;10.50;51.30
48212;DHT22;34000;48.772;9.162;2023-02-01T15:19:20;10.50;51.30
48212;DHT22;34000;48.772;9.162;2023-02-01T15:21:48;10.50;51.40
48212;DHT22;34000;48.772;9.162;2023-02-01T15:24:26;10.50;51.40
48212;DHT22;34000;48.772;9.162;2023-02-01T15:26:53;10.50;51.40
48212;DHT22;34000;48.772;9.162;2023-02-01T15:29:19;10.50;51.50
48212;DHT22;34000;48.772;9.162;2023-02-01T15:31:47;10.40;51.40
48212;DHT22;34000;48.772;9.162;2023-02-01T15:34:13;10.50;51.50
48212;DHT22;34000;48.772;9.162;2023-02-01T15:36:39;10.40;51.50
48212;DHT22;34000;48.772;9.162;2023-02-01T15:39:16;10.30;51.50
48212;DHT22;34000;48.772;9.162;2023-02-01T15:41:49;10.30;51.60
48212;DHT22;34000;48.772;9.162;2023-02-01T15:44:19;10.30;52.30
48212;DHT22;34000;48.772;9.162;2023-02-01T15:46:46;10.30;51.70
48212;DHT22;34000;48.772;9.162;2023-02-01T15:49:17;10.30;51.70
48212;DHT22;34000;48.772;9.162;2023-02-01T15:51:44;10.30;51.60
48212;DHT22;34000;48.772;9.162;2023-02-01T15:54:16;10.30;51.60
48212;DHT22;34000;48.772;9.162;2023-02-01T15:56:48;10.30;51.60
48212;DHT22;34000;48.772;9.162;2023-02-01T15:59:17;10.30;51.60
48212;DHT22;34000;48.772;9.162;2023-02-01T16:01:43;10.30;51.60
48212;DHT22;34000;48.772;9.162;2023-02-01T16:04:25;10.30;51.50
48212;DHT22;34000;48.772;9.162;2023-02-01T16:06:54;10.30;51.50
48212;DHT22;34000;48.772;9.162;2023-02-01T16:09:22;10.30;51.50
48212;DHT22;34000;48.772;9.162;2023-02-01T16:11:57;10.30;51.40
48212;DHT22;34000;48.772;9.162;2023-02-01T16:14:23;10.30;51.40
48212;DHT22;34000;48.772;9.162;2023-02-01T16:16:49;10.30;51.30
48212;DHT22;34000;48.772;9.162;2023-02-01T16:19:15;10.30;51.30
48212;DHT22;34000;48.772;9.162;2023-02-01T16:21:41;10.30;51.30
48212;DHT22;34000;48.772;9.162;2023-02-01T16:24:06;10.40;51.30
48212;DHT22;34000;48.772;9.162;2023-02-01T16:26:32;10.40;51.20
48212;DHT22;34000;48.772;9.162;2023-02-01T16:28:58;10.30;51.10
48212;DHT22;34000;48.772;9.162;2023-02-01T16:31:26;10.40;51.20
48212;DHT22;34000;48.772;9.162;2023-02-01T16:33:52;10.30;51.10
48212;DHT22;34000;48.772;9.162;2023-02-01T16:36:18;10.30;51.10
48212;DHT22;34000;48.772;9.162;2023-02-01T16:38:44;10.30;51.10
48212;DHT22;34000;48.772;9.162;2023-02-01T16:41:12;10.40;51.10
48212;DHT22;34000;48.772;9.162;2023-02-01T16:43:38;10.40;51.00
48212;DHT22;34000;48.772;9.162;2023-02-01T16:46:03;10.40;51.00
48212;DHT22;34000;48.772;9.162;2023-02-01T16:48:29;10.40;50.90
48212;DHT22;34000;48.772;9.162;2023-02-01T16:50:56;10.40;50.90
48212;DHT22;34000;48.772;9.162;2023-02-01T16:53:23;10.40;51.00
48212;DHT22;34000;48.772;9.162;2023-02-01T16:55:49;10.40;50.90
48212;DHT22;34000;48.772;9.162;2023-02-01T16:58:18;10.30;50.80
48212;DHT22;34000;48.772;9.162;2023-02-01T17:00:44;10.40;50.80
48212;DHT22;34000;48.772;9.162;2023-02-01T17:03:13;10.30;50.70
48212;DHT22;34000;48.772;9.162;2023-02-01T17:05:45;10.20;50.80
48212;DHT22;34000;48.772;9.162;2023-02-01T17:08:12;10.20;50.80
48212;DHT22;34000;48.772;9.162;2023-02-01T17:10:39;10.10;50.80
48212;DHT22;34000;48.772;9.162;2023-02-01T17:13:04;10.10;50.90
48212;DHT22;34000;48.772;9.162;2023-02-01T17:15:32;10.00;50.90
48212;DHT22;34000;48.772;9.162;2023-02-01T17:18:01;10.00;50.90
48212;DHT22;34000;48.772;9.162;2023-02-01T17:20:28;9.90;51.00
48212;DHT22;34000;48.772;9.162;2023-02-01T17:22:54;9.90;51.20
48212;DHT22;34000;48.772;9.162;2023-02-01T17:25:20;9.90;51.20
48212;DHT22;34000;48.772;9.162;2023-02-01T17:27:46;9.90;51.20
48212;DHT22;34000;48.772;9.162;2023-02-01T17:30:12;9.90;51.20
48212;DHT22;34000;48.772;9.162;2023-02-01T17:32:38;9.90;51.10
48212;DHT22;34000;48.772;9.162;2023-02-01T17:35:05;9.90;51.10
48212;DHT22;34000;48.772;9.162;2023-02-01T17:37:32;9.90;51.20
48212;DHT22;34000;48.772;9.162;2023-02-01T17:39:57;9.90;51.20
48212;DHT22;34000;48.772;9.162;2023-02-01T17:42:24;9.90;51.20
48212;DHT22;34000;48.772;9.162;2023-02-01T17:44:51;10.00;51.10
48212;DHT22;34000;48.772;9.162;2023-02-01T17:47:17;10.00;51.10
48212;DHT22;34000;48.772;9.162;2023-02-01T17:49:42;9.90;51.10
48212;DHT22;34000;48.772;9.162;2023-02-01T17:52:10;9.90;51.10
48212;DHT22;34000;48.772;9.162;2023-02-01T17:54:39;9.90;51.20
48212;DHT22;34000;48.772;9.162;2023-02-01T17:57:09;9.90;51.20
48212;DHT22;34000;48.772;9.162;2023-02-01T17:59:35;10.00;51.30
48212;DHT22;34000;48.772;9.162;2023-02-01T18:02:00;10.00;51.20
48212;DHT22;34000;48.772;9.162;2023-02-01T18:04:26;9.90;51.20
48212;DHT22;34000;48.772;9.162;2023-02-01T18:06:51;9.90;51.20